createdAt,value
2022-09-21T00:01:08.822Z,13.40
2022-09-21T00:03:36.911Z,14.90
2022-09-21T00:06:05.861Z,9.27
2022-09-21T00:08:32.342Z,12.10
2022-09-21T00:11:00.103Z,14.95
2022-09-21T00:13:28.282Z,9.32
2022-09-21T00:15:55.960Z,9.27
2022-09-21T00:18:23.003Z,12.35
2022-09-21T00:20:49.438Z,6.93
2022-09-21T00:23:16.154Z,7.40
2022-09-21T00:25:42.503Z,6.25
2022-09-21T00:28:09.005Z,10.52
2022-09-21T00:30:35.378Z,7.55
2022-09-21T00:33:01.739Z,10.80
2022-09-21T00:35:28.077Z,8.50
2022-09-21T00:37:54.642Z,9.18
2022-09-21T00:40:21.107Z,8.95
2022-09-21T00:42:47.963Z,8.65
2022-09-21T00:45:21.297Z,12.65
2022-09-21T00:47:51.639Z,13.15
2022-09-21T00:50:24.358Z,12.18
2022-09-21T00:52:54.263Z,13.07
2022-09-21T00:55:31.142Z,15.63
2022-09-21T00:58:02.083Z,39.45
2022-09-21T01:00:28.517Z,116.90
2022-09-21T01:03:01.249Z,24.55
2022-09-21T01:05:28.938Z,45.55
2022-09-21T01:08:00.481Z,28.48
2022-09-21T01:10:27.462Z,29.48
2022-09-21T01:13:15.023Z,12.63
2022-09-21T01:15:53.262Z,18.02
2022-09-21T01:18:53.831Z,25.52
2022-09-21T01:21:30.849Z,26.35
2022-09-21T01:24:18.660Z,11.13
2022-09-21T01:27:16.109Z,54.78
2022-09-21T01:29:49.088Z,36.58
2022-09-21T01:32:28.142Z,33.20
2022-09-21T01:35:03.025Z,35.40
2022-09-21T01:37:36.251Z,27.65
2022-09-21T01:40:11.021Z,41.75
2022-09-21T01:42:40.948Z,30.27
2022-09-21T01:45:10.355Z,32.97
2022-09-21T01:47:40.692Z,20.60
2022-09-21T01:50:11.493Z,15.53
2022-09-21T01:52:46.020Z,12.73
2022-09-21T01:55:18.619Z,8.45
2022-09-21T01:57:54.689Z,17.08
2022-09-21T02:00:22.030Z,19.67
2022-09-21T02:02:53.631Z,25.58
2022-09-21T02:05:23.188Z,18.63
2022-09-21T02:07:51.817Z,8.23
2022-09-21T02:10:32.630Z,10.30
2022-09-21T02:13:06.221Z,16.70
2022-09-21T02:15:51.837Z,12.55
2022-09-21T02:18:29.084Z,12.55
2022-09-21T02:20:59.900Z,9.35
2022-09-21T02:23:37.501Z,9.23
2022-09-21T02:26:10.516Z,17.40
2022-09-21T02:29:01.484Z,9.30
2022-09-21T02:31:57.516Z,10.02
2022-09-21T02:34:52.571Z,18.67
2022-09-21T02:37:47.954Z,16.02
2022-09-21T02:40:32.607Z,16.30
2022-09-21T02:43:09.152Z,17.88
2022-09-21T02:45:43.946Z,14.85
2022-09-21T02:48:34.762Z,13.75
2022-09-21T02:51:07.435Z,14.48
2022-09-21T02:53:36.941Z,14.73
2022-09-21T02:56:07.077Z,13.82
2022-09-21T02:58:40.908Z,16.98
2022-09-21T03:01:11.110Z,13.63
2022-09-21T03:03:38.086Z,20.10
2022-09-21T03:06:04.664Z,14.80
2022-09-21T03:08:31.022Z,23.45
2022-09-21T03:10:57.730Z,13.52
2022-09-21T03:13:24.566Z,29.02
2022-09-21T03:16:02.615Z,30.92
2022-09-21T03:18:29.608Z,55.53
2022-09-21T03:20:55.984Z,39.83
2022-09-21T03:23:22.390Z,28.30
2022-09-21T03:25:48.810Z,29.38
2022-09-21T03:28:15.853Z,25.80
2022-09-21T03:30:43.088Z,19.23
2022-09-21T03:33:10.079Z,22.65
2022-09-21T03:35:36.420Z,27.55
2022-09-21T03:38:03.062Z,33.13
2022-09-21T03:40:29.528Z,16.33
2022-09-21T03:42:56.027Z,11.60
2022-09-21T03:45:22.496Z,26.75
2022-09-21T03:47:49.128Z,23.00
2022-09-21T03:50:15.750Z,25.83
2022-09-21T03:52:42.175Z,28.33
2022-09-21T03:55:09.581Z,17.27
2022-09-21T03:57:36.656Z,23.52
2022-09-21T04:00:09.267Z,32.40
2022-09-21T04:02:36.898Z,32.05
2022-09-21T04:05:04.108Z,26.48
2022-09-21T04:07:34.592Z,19.90
2022-09-21T04:10:05.884Z,13.75
2022-09-21T04:15:01.569Z,15.90
2022-09-21T04:17:28.585Z,19.35
2022-09-21T04:19:54.986Z,20.88
2022-09-21T04:22:21.348Z,27.42
2022-09-21T04:24:47.686Z,14.93
2022-09-21T04:27:14.461Z,19.42
2022-09-21T04:29:41.190Z,12.32
2022-09-21T04:32:07.882Z,17.17
2022-09-21T04:34:34.308Z,14.88
2022-09-21T04:37:00.641Z,13.30
2022-09-21T04:39:26.973Z,17.55
2022-09-21T04:41:53.358Z,29.73
2022-09-21T04:44:19.752Z,13.75
2022-09-21T04:46:46.660Z,13.55
2022-09-21T04:49:13.011Z,14.68
2022-09-21T04:51:39.362Z,14.50
2022-09-21T04:54:06.561Z,21.55
2022-09-21T04:56:33.697Z,21.52
2022-09-21T04:59:00.121Z,24.25
2022-09-21T05:01:26.522Z,18.58
2022-09-21T05:03:52.994Z,20.23
2022-09-21T05:06:19.426Z,17.73
2022-09-21T05:09:04.316Z,15.30
2022-09-21T05:11:30.837Z,19.00
2022-09-21T05:13:57.348Z,30.83
2022-09-21T05:16:23.807Z,20.55
2022-09-21T05:18:53.942Z,28.70
2022-09-21T05:21:21.454Z,30.00
2022-09-21T05:23:47.791Z,21.50
2022-09-21T05:26:14.158Z,26.08
2022-09-21T05:28:40.918Z,22.77
2022-09-21T05:31:33.005Z,47.05
2022-09-21T05:34:18.539Z,25.80
2022-09-21T05:37:03.356Z,24.02
2022-09-21T05:39:30.057Z,24.45
2022-09-21T05:41:56.929Z,33.40
2022-09-21T05:44:23.668Z,25.52
2022-09-21T05:47:05.987Z,23.02
2022-09-21T05:49:49.569Z,21.42
2022-09-21T05:52:25.125Z,15.52
2022-09-21T05:55:22.944Z,33.67
2022-09-21T05:58:23.688Z,16.92
2022-09-21T06:01:02.274Z,16.02
2022-09-21T06:03:30.860Z,20.40
2022-09-21T06:05:58.337Z,21.25
2022-09-21T06:08:25.714Z,31.80
2022-09-21T06:10:52.687Z,23.45
2022-09-21T06:13:19.468Z,28.65
2022-09-21T06:15:45.802Z,37.30
2022-09-21T06:18:17.527Z,18.65
2022-09-21T06:20:44.229Z,36.30
2022-09-21T06:23:13.053Z,30.63
2022-09-21T06:25:39.434Z,36.10
2022-09-21T06:28:11.847Z,24.98
2022-09-21T06:30:40.870Z,18.67
2022-09-21T06:33:07.822Z,27.08
2022-09-21T06:35:35.830Z,26.90
2022-09-21T06:38:05.310Z,24.30
2022-09-21T06:40:33.854Z,20.95
2022-09-21T06:43:01.941Z,23.98
2022-09-21T06:45:29.796Z,24.88
2022-09-21T06:47:56.254Z,21.42
2022-09-21T06:50:23.406Z,25.08
2022-09-21T06:52:50.006Z,26.92
2022-09-21T06:55:16.940Z,16.98
2022-09-21T06:57:43.727Z,16.13
2022-09-21T07:00:12.420Z,16.33
2022-09-21T07:02:42.182Z,16.15
2022-09-21T07:05:08.625Z,13.45
2022-09-21T07:07:36.393Z,15.05
2022-09-21T07:10:05.535Z,21.52
2022-09-21T07:12:34.517Z,14.98
2022-09-21T07:15:02.400Z,17.75
2022-09-21T07:17:36.708Z,16.80
2022-09-21T07:20:05.074Z,18.83
2022-09-21T07:22:32.800Z,16.48
2022-09-21T07:24:59.997Z,15.77
2022-09-21T07:27:26.525Z,12.93
2022-09-21T07:29:52.953Z,15.88
2022-09-21T07:32:19.874Z,17.38
2022-09-21T07:34:46.579Z,19.30
2022-09-21T07:37:13.825Z,15.98
2022-09-21T07:39:40.185Z,22.83
2022-09-21T07:42:07.074Z,15.30
2022-09-21T07:44:34.176Z,14.63
2022-09-21T07:47:01.824Z,22.73
2022-09-21T07:49:28.170Z,18.67
2022-09-21T07:51:54.575Z,13.50
2022-09-21T07:54:20.994Z,15.27
2022-09-21T07:57:07.344Z,14.13
2022-09-21T07:59:33.730Z,15.15
2022-09-21T08:02:00.521Z,18.65
2022-09-21T08:04:27.020Z,15.10
2022-09-21T08:06:53.421Z,16.90
2022-09-21T08:09:19.766Z,29.15
2022-09-21T08:11:46.976Z,19.95
2022-09-21T08:14:22.393Z,17.90
2022-09-21T08:16:52.479Z,19.13
2022-09-21T08:19:19.213Z,24.60
2022-09-21T08:21:51.416Z,15.90
2022-09-21T08:24:21.388Z,18.85
2022-09-21T08:26:49.827Z,16.98
2022-09-21T08:29:16.196Z,17.63
2022-09-21T08:31:43.375Z,17.35
2022-09-21T08:34:09.852Z,21.23
2022-09-21T08:36:36.224Z,16.15
2022-09-21T08:39:02.775Z,26.15
2022-09-21T08:41:47.592Z,17.13
2022-09-21T08:44:20.038Z,21.45
2022-09-21T08:46:50.473Z,18.15
2022-09-21T08:49:25.082Z,21.10
2022-09-21T08:51:57.667Z,23.05
2022-09-21T08:54:51.653Z,19.42
2022-09-21T08:57:19.301Z,28.15
2022-09-21T08:59:47.937Z,21.08
2022-09-21T09:02:40.320Z,22.67
2022-09-21T09:05:28.310Z,20.40
2022-09-21T09:08:14.625Z,19.90
2022-09-21T09:10:52.080Z,19.17
2022-09-21T09:13:52.984Z,26.10
2022-09-21T09:16:36.172Z,20.55
2022-09-21T09:19:23.420Z,22.48
2022-09-21T09:21:50.145Z,21.50
2022-09-21T09:24:38.696Z,16.00
2022-09-21T09:27:17.908Z,19.80
2022-09-21T09:29:54.244Z,22.50
2022-09-21T09:32:27.649Z,19.02
2022-09-21T09:35:05.082Z,16.83
2022-09-21T09:37:36.936Z,19.10
2022-09-21T09:40:03.938Z,20.90
2022-09-21T09:43:00.169Z,16.90
2022-09-21T09:45:31.817Z,14.90
2022-09-21T09:48:27.009Z,16.20
2022-09-21T09:50:53.425Z,17.65
2022-09-21T09:53:23.879Z,16.65
2022-09-21T09:55:54.297Z,15.32
2022-09-21T09:58:34.291Z,13.80
2022-09-21T10:01:00.655Z,17.05
2022-09-21T10:03:28.701Z,17.17
2022-09-21T10:05:55.644Z,18.70
2022-09-21T10:08:43.945Z,12.95
2022-09-21T10:11:13.127Z,12.15
2022-09-21T10:13:43.149Z,17.38
2022-09-21T10:16:09.523Z,10.38
2022-09-21T10:18:51.842Z,11.82
2022-09-21T10:21:22.363Z,11.15
2022-09-21T10:23:56.676Z,14.48
2022-09-21T10:26:23.234Z,14.15
2022-09-21T10:29:01.334Z,11.73
2022-09-21T10:31:30.677Z,15.52
2022-09-21T10:34:12.587Z,12.73
2022-09-21T10:36:38.984Z,9.48
2022-09-21T10:39:18.799Z,13.35
2022-09-21T10:41:50.485Z,11.95
2022-09-21T10:44:19.324Z,10.63
2022-09-21T10:46:48.656Z,10.07
2022-09-21T10:49:21.470Z,8.30
2022-09-21T10:51:51.110Z,11.85
2022-09-21T10:54:25.818Z,11.65
2022-09-21T10:57:16.306Z,16.85
2022-09-21T10:59:42.713Z,10.83
2022-09-21T11:02:34.427Z,10.77
2022-09-21T11:05:18.168Z,11.95
2022-09-21T11:08:12.646Z,11.93
2022-09-21T11:10:53.537Z,15.23
2022-09-21T11:13:38.590Z,9.07
2022-09-21T11:16:22.637Z,10.15
2022-09-21T11:18:51.706Z,10.85
2022-09-21T11:21:36.385Z,11.15
2022-09-21T11:24:26.299Z,7.18
2022-09-21T11:27:03.896Z,12.32
2022-09-21T11:29:50.140Z,7.15
2022-09-21T11:32:42.439Z,9.07
2022-09-21T11:35:35.228Z,7.10
2022-09-21T11:38:20.428Z,4.38
2022-09-21T11:40:53.584Z,9.30
2022-09-21T11:43:35.481Z,7.05
2022-09-21T11:46:30.207Z,5.07
2022-09-21T11:49:33.817Z,5.03
2022-09-21T11:52:02.912Z,6.30
2022-09-21T11:54:53.618Z,7.75
2022-09-21T11:57:25.669Z,10.32
2022-09-21T12:00:04.218Z,4.85
2022-09-21T12:02:51.974Z,4.65
2022-09-21T12:05:56.584Z,3.17
2022-09-21T12:08:35.104Z,7.72
2022-09-21T12:11:06.177Z,3.78
2022-09-21T12:13:45.308Z,3.22
2022-09-21T12:16:40.609Z,5.10
2022-09-21T12:19:13.877Z,4.95
2022-09-21T12:21:47.445Z,2.65
2022-09-21T12:24:22.752Z,6.28
2022-09-21T12:26:55.460Z,3.40
2022-09-21T12:29:47.537Z,4.38
2022-09-21T12:32:47.303Z,5.45
2022-09-21T12:35:36.292Z,5.57
2022-09-21T12:38:23.432Z,7.95
2022-09-21T12:40:59.716Z,6.72
2022-09-21T12:43:36.978Z,3.97
2022-09-21T12:46:07.668Z,1.85
2022-09-21T12:48:38.835Z,4.45
2022-09-21T12:53:58.083Z,5.25
2022-09-21T12:56:51.231Z,2.28
2022-09-21T12:59:43.389Z,2.38
2022-09-21T13:02:51.562Z,3.60
2022-09-21T13:05:27.094Z,1.98
2022-09-21T13:08:13.149Z,3.10
2022-09-21T13:10:44.937Z,3.05
2022-09-21T13:13:27.952Z,3.63
2022-09-21T13:15:55.014Z,1.58
2022-09-21T13:18:35.853Z,3.47
2022-09-21T13:21:16.852Z,2.63
2022-09-21T13:23:43.809Z,0.95
2022-09-21T13:26:12.125Z,1.15
2022-09-21T13:28:58.457Z,1.50
2022-09-21T13:31:57.447Z,2.65
2022-09-21T13:34:29.663Z,0.82
2022-09-21T13:37:11.328Z,1.50
2022-09-21T13:39:43.636Z,2.88
2022-09-21T13:42:28.370Z,1.25
2022-09-21T13:44:55.450Z,1.55
2022-09-21T13:47:31.593Z,5.63
2022-09-21T13:50:01.100Z,1.50
2022-09-21T13:52:32.384Z,2.72
2022-09-21T13:55:01.735Z,1.60
2022-09-21T13:57:34.877Z,1.20
2022-09-21T14:00:26.484Z,2.33
2022-09-21T14:03:06.016Z,2.47
2022-09-21T14:05:45.963Z,1.17
2022-09-21T14:08:15.655Z,1.15
2022-09-21T14:10:54.397Z,2.22
2022-09-21T14:13:26.662Z,1.60
2022-09-21T14:15:53.143Z,1.20
2022-09-21T14:18:35.670Z,0.90
2022-09-21T14:21:08.203Z,1.35
2022-09-21T14:23:36.675Z,1.33
2022-09-21T14:26:40.872Z,3.30
2022-09-21T14:29:17.308Z,4.65
2022-09-21T14:31:44.072Z,3.88
2022-09-21T14:34:20.376Z,4.78
2022-09-21T14:36:52.785Z,8.65
2022-09-21T14:39:33.358Z,5.28
2022-09-21T14:42:17.534Z,6.05
2022-09-21T14:44:44.588Z,2.63
2022-09-21T14:47:29.516Z,3.33
2022-09-21T14:50:07.489Z,2.85
2022-09-21T14:53:02.076Z,7.20
2022-09-21T14:55:40.444Z,5.22
2022-09-21T14:58:24.858Z,5.38
2022-09-21T15:00:53.230Z,2.63
2022-09-21T15:03:30.581Z,2.40
2022-09-21T15:06:29.473Z,2.60
2022-09-21T15:09:39.606Z,2.65
2022-09-21T15:12:32.030Z,5.93
2022-09-21T15:15:23.123Z,5.32
2022-09-21T15:17:59.282Z,6.40
2022-09-21T15:20:27.702Z,2.45
2022-09-21T15:22:55.894Z,1.77
2022-09-21T15:25:24.343Z,3.13
2022-09-21T15:27:51.926Z,2.50
2022-09-21T15:30:21.806Z,2.05
2022-09-21T15:32:53.504Z,2.45
2022-09-21T15:35:33.371Z,4.43
2022-09-21T15:38:01.232Z,5.63
2022-09-21T15:40:31.066Z,9.43
2022-09-21T15:43:20.716Z,7.40
2022-09-21T15:45:54.623Z,3.70
2022-09-21T15:48:22.739Z,1.60
2022-09-21T15:51:07.942Z,1.98
2022-09-21T15:53:41.136Z,2.05
2022-09-21T15:56:09.712Z,0.93
2022-09-21T15:58:40.370Z,1.73
2022-09-21T16:01:14.758Z,1.40
2022-09-21T16:03:42.487Z,1.95
2022-09-21T16:06:37.706Z,2.33
2022-09-21T16:09:31.704Z,0.80
2022-09-21T16:11:58.675Z,0.80
2022-09-21T16:14:44.043Z,2.00
2022-09-21T16:17:13.267Z,1.48
2022-09-21T16:19:49.617Z,0.77
2022-09-21T16:22:21.421Z,0.60
2022-09-21T16:24:54.582Z,0.77
2022-09-21T16:27:24.522Z,2.03
2022-09-21T16:29:53.057Z,1.55
2022-09-21T16:32:19.421Z,3.00
2022-09-21T16:34:51.623Z,4.93
2022-09-21T16:37:27.991Z,3.45
2022-09-21T16:39:56.153Z,4.25
2022-09-21T16:42:27.781Z,3.88
2022-09-21T16:44:54.853Z,1.80
2022-09-21T16:47:25.222Z,2.38
2022-09-21T16:49:56.910Z,2.20
2022-09-21T16:52:24.402Z,5.78
2022-09-21T16:54:51.240Z,4.07
2022-09-21T16:57:18.277Z,3.25
2022-09-21T16:59:44.628Z,7.85
2022-09-21T17:02:14.260Z,7.95
2022-09-21T17:04:41.310Z,7.25
2022-09-21T17:07:11.969Z,7.88
2022-09-21T17:09:42.022Z,5.07
2022-09-21T17:12:10.981Z,3.03
2022-09-21T17:14:40.908Z,5.53
2022-09-21T17:17:22.314Z,6.90
2022-09-21T17:19:50.284Z,1.50
2022-09-21T17:22:18.131Z,6.10
2022-09-21T17:24:50.761Z,4.57
2022-09-21T17:27:21.251Z,2.88
2022-09-21T17:29:49.485Z,2.60
2022-09-21T17:32:20.968Z,5.95
2022-09-21T17:35:19.887Z,5.30
2022-09-21T17:37:46.300Z,2.28
2022-09-21T17:40:13.649Z,3.50
2022-09-21T17:42:43.186Z,2.83
2022-09-21T17:45:21.756Z,7.70
2022-09-21T17:47:50.201Z,4.07
2022-09-21T17:50:26.813Z,5.18
2022-09-21T17:53:13.454Z,3.17
2022-09-21T17:55:45.638Z,1.63
2022-09-21T17:58:37.765Z,1.85
2022-09-21T18:01:04.116Z,2.22
2022-09-21T18:03:35.706Z,2.75
2022-09-21T18:06:02.427Z,8.50
2022-09-21T18:08:33.865Z,3.13
2022-09-21T18:11:03.184Z,5.03
2022-09-21T18:13:47.013Z,4.85
2022-09-21T18:16:22.565Z,10.02
2022-09-21T18:19:02.635Z,3.33
2022-09-21T18:21:33.685Z,6.65
2022-09-21T18:24:20.166Z,3.55
2022-09-21T18:26:47.876Z,4.43
2022-09-21T18:29:41.988Z,4.13
2022-09-21T18:32:23.833Z,5.40
2022-09-21T18:35:16.776Z,2.03
2022-09-21T18:38:05.144Z,3.08
2022-09-21T18:41:24.286Z,2.10
2022-09-21T18:44:31.701Z,2.53
2022-09-21T18:47:18.022Z,2.95
2022-09-21T18:50:19.983Z,4.55
2022-09-21T18:52:57.172Z,3.05
2022-09-21T18:55:29.036Z,2.75
2022-09-21T18:57:57.157Z,1.50
2022-09-21T19:00:31.474Z,2.25
2022-09-21T19:03:16.316Z,6.68
2022-09-21T19:05:54.578Z,11.27
2022-09-21T19:09:15.903Z,15.82
2022-09-21T19:11:50.003Z,11.02
2022-09-21T19:14:45.295Z,75.50
2022-09-21T19:17:33.189Z,50.53
2022-09-21T19:20:12.427Z,42.72
2022-09-21T19:22:56.880Z,37.70
2022-09-21T19:25:34.137Z,32.58
2022-09-21T19:28:05.720Z,7.72
2022-09-21T19:30:32.317Z,1.88
2022-09-21T19:32:59.953Z,2.67
2022-09-21T19:35:28.937Z,6.13
2022-09-21T19:38:02.331Z,7.00
2022-09-21T19:40:32.490Z,6.57
2022-09-21T19:43:23.779Z,5.68
2022-09-21T19:46:04.861Z,6.80
2022-09-21T19:48:46.228Z,6.25
2022-09-21T19:54:01.705Z,7.30
2022-09-21T19:56:53.337Z,8.13
2022-09-21T19:59:40.430Z,9.23
2022-09-21T20:02:10.793Z,8.23
2022-09-21T20:04:56.857Z,9.10
2022-09-21T20:07:44.289Z,28.02
2022-09-21T20:10:24.035Z,13.23
2022-09-21T20:13:08.397Z,4.00
2022-09-21T20:15:46.799Z,9.48
2022-09-21T20:18:46.219Z,2.20
2022-09-21T20:21:15.668Z,17.42
2022-09-21T20:23:42.422Z,10.48
2022-09-21T20:26:23.401Z,11.38
2022-09-21T20:28:54.086Z,9.70
2022-09-21T20:31:25.663Z,8.35
2022-09-21T20:33:52.082Z,5.10
2022-09-21T20:36:18.532Z,5.25
2022-09-21T20:38:44.950Z,4.05
2022-09-21T20:41:12.962Z,3.67
2022-09-21T20:43:39.664Z,9.40
2022-09-21T20:46:06.330Z,2.38
2022-09-21T20:48:32.717Z,8.00
2022-09-21T20:51:01.517Z,1.67
2022-09-21T20:53:27.844Z,7.28
2022-09-21T20:55:56.418Z,2.78
2022-09-21T20:58:23.798Z,7.32
2022-09-21T21:00:54.002Z,5.68
2022-09-21T21:03:22.917Z,7.35
2022-09-21T21:05:49.266Z,7.45
2022-09-21T21:08:15.652Z,6.60
2022-09-21T21:10:46.540Z,9.05
2022-09-21T21:13:12.892Z,2.38
2022-09-21T21:15:39.229Z,14.40
2022-09-21T21:18:10.019Z,14.30
2022-09-21T21:20:37.518Z,2.78
2022-09-21T21:23:07.903Z,1.98
2022-09-21T21:25:34.835Z,7.47
2022-09-21T21:28:01.686Z,8.88
2022-09-21T21:30:28.089Z,6.03
2022-09-21T21:32:54.482Z,4.22
2022-09-21T21:35:20.832Z,4.82
2022-09-21T21:37:47.298Z,3.85
2022-09-21T21:40:13.785Z,3.13
2022-09-21T21:42:40.134Z,6.03
2022-09-21T21:45:07.430Z,13.43
2022-09-21T21:47:41.432Z,6.70
2022-09-21T21:50:09.609Z,2.05
2022-09-21T21:52:36.173Z,4.63
2022-09-21T21:55:02.937Z,9.52
2022-09-21T21:57:29.333Z,2.83
2022-09-21T21:59:55.658Z,7.10
2022-09-21T22:02:22.273Z,6.15
2022-09-21T22:04:48.642Z,9.15
2022-09-21T22:07:15.021Z,9.98
2022-09-21T22:09:41.384Z,5.55
2022-09-21T22:12:09.013Z,6.28
2022-09-21T22:14:35.528Z,4.50
2022-09-21T22:17:02.236Z,4.78
2022-09-21T22:19:28.698Z,8.23
2022-09-21T22:21:55.142Z,5.75
2022-09-21T22:24:22.161Z,7.38
2022-09-21T22:26:48.826Z,5.72
2022-09-21T22:29:17.066Z,5.10
2022-09-21T22:31:46.588Z,6.07
2022-09-21T22:34:14.510Z,12.90
2022-09-21T22:36:43.196Z,7.35
2022-09-21T22:39:09.832Z,3.28
2022-09-21T22:41:41.054Z,2.58
2022-09-21T22:46:34.850Z,5.80
2022-09-21T22:49:01.298Z,3.50
2022-09-21T22:51:28.788Z,4.40
2022-09-21T22:53:55.735Z,7.10
2022-09-21T22:56:25.546Z,6.43
2022-09-21T22:58:54.415Z,8.50
2022-09-21T23:01:29.853Z,6.80
2022-09-21T23:03:58.732Z,11.43
2022-09-21T23:06:28.307Z,5.40
2022-09-21T23:08:57.179Z,11.60
2022-09-21T23:11:29.266Z,4.45
2022-09-21T23:13:57.321Z,6.45
2022-09-21T23:16:25.194Z,7.20
2022-09-21T23:18:51.617Z,7.60
2022-09-21T23:21:20.623Z,5.80
2022-09-21T23:23:47.789Z,7.93
2022-09-21T23:26:17.332Z,6.25
2022-09-21T23:28:45.884Z,17.88
2022-09-21T23:31:14.716Z,13.50
2022-09-21T23:33:46.521Z,7.68
2022-09-21T23:36:16.390Z,11.60
2022-09-21T23:38:43.247Z,7.18
2022-09-21T23:41:12.197Z,7.32
2022-09-21T23:43:40.679Z,5.80
2022-09-21T23:46:08.819Z,5.15
2022-09-21T23:48:35.942Z,10.23
2022-09-21T23:51:03.411Z,6.00
2022-09-21T23:53:30.894Z,5.20
2022-09-21T23:55:58.015Z,5.28
2022-09-21T23:58:25.817Z,4.80
